Time;durP1;ratioP1;P1;durP2;ratioP2;P2;SDS_P1;SDS_P2;PMS_P1;PMS_P2;Temp;Humidity;BMP_temperature;BMP_pressure;BME280_temperature;BME280_humidity;BME280_pressure;Samples;Min_cycle;Max_cycle;Signal;HPM_P1;HPM_P2
2023/07/15 00:00:18;;;;;;;12.18;5.20;;;21.00;99.90;;;;;;4936829;29;20187;-78
2023/07/15 00:02:45;;;;;;;9.15;5.05;;;21.00;99.90;;;;;;4936693;29;20238;-80
2023/07/15 00:05:29;;;;;;;10.10;5.10;;;21.00;99.90;;;;;;4936650;29;20207;-79
2023/07/15 00:07:55;;;;;;;8.77;4.97;;;21.00;99.90;;;;;;4936028;29;20608;-80
2023/07/15 00:10:22;;;;;;;7.78;4.78;;;21.00;99.90;;;;;;4935709;28;20187;-79
2023/07/15 00:12:48;;;;;;;8.43;4.95;;;21.00;99.90;;;;;;4935420;29;20187;-79
2023/07/15 00:15:14;;;;;;;12.05;5.00;;;21.00;99.90;;;;;;4935625;29;20187;-80
2023/07/15 00:17:40;;;;;;;8.25;5.20;;;21.00;99.90;;;;;;4935517;28;20194;-81
2023/07/15 00:20:12;;;;;;;8.35;4.90;;;21.00;99.90;;;;;;4936868;29;20205;-79
2023/07/15 00:22:38;;;;;;;7.75;4.95;;;21.00;99.90;;;;;;4935569;29;20206;-80
2023/07/15 00:25:05;;;;;;;10.95;4.90;;;21.00;99.90;;;;;;4934944;29;20727;-79
2023/07/15 00:27:33;;;;;;;8.77;4.57;;;21.00;99.90;;;;;;4935280;29;20179;-79
2023/07/15 00:30:00;;;;;;;10.07;4.65;;;21.00;99.90;;;;;;4937102;29;20259;-81
2023/07/15 00:32:28;;;;;;;8.35;4.70;;;21.00;99.90;;;;;;4935308;29;20318;-79
2023/07/15 00:34:53;;;;;;;6.53;4.38;;;21.00;99.90;;;;;;4935476;29;20266;-79
2023/07/15 00:37:20;;;;;;;6.97;4.22;;;21.00;99.90;;;;;;4936297;29;20182;-78
2023/07/15 00:39:46;;;;;;;11.90;5.05;;;21.00;99.90;;;;;;4937066;29;20239;-79
2023/07/15 00:42:38;;;;;;;12.98;4.88;;;21.00;99.90;;;;;;4935254;29;20659;-78
2023/07/15 00:45:03;;;;;;;8.23;4.78;;;21.00;99.90;;;;;;4936268;29;20230;-78
2023/07/15 00:47:39;;;;;;;10.07;4.95;;;21.00;99.90;;;;;;4936368;29;20632;-78
2023/07/15 00:50:06;;;;;;;10.32;4.82;;;21.00;99.90;;;;;;4935160;29;20242;-77
2023/07/15 00:52:32;;;;;;;10.98;4.60;;;21.10;99.90;;;;;;4919476;29;20286;-78
2023/07/15 00:54:58;;;;;;;7.45;4.28;;;21.00;99.90;;;;;;4936189;29;20175;-78
2023/07/15 00:57:25;;;;;;;9.85;5.10;;;21.00;99.90;;;;;;4936734;29;20194;-77
2023/07/15 00:59:58;;;;;;;7.80;4.53;;;21.00;99.90;;;;;;4920262;29;20574;-79
2023/07/15 01:02:25;;;;;;;12.98;5.20;;;21.10;99.90;;;;;;4919589;29;20179;-79
2023/07/15 01:04:52;;;;;;;15.65;5.18;;;21.00;99.90;;;;;;4934844;29;20207;-78
2023/07/15 01:07:18;;;;;;;9.63;4.65;;;21.00;99.90;;;;;;4936221;29;20187;-78
2023/07/15 01:09:44;;;;;;;9.50;4.95;;;21.10;99.90;;;;;;4934759;29;20195;-78
2023/07/15 01:12:10;;;;;;;7.20;4.68;;;21.10;99.90;;;;;;4936152;29;20167;-78
2023/07/15 01:14:37;;;;;;;7.85;4.65;;;21.10;99.90;;;;;;4936711;29;20183;-79
2023/07/15 01:17:03;;;;;;;8.68;4.43;;;21.10;99.90;;;;;;4934880;29;20179;-78
2023/07/15 01:19:29;;;;;;;12.45;4.45;;;21.10;99.90;;;;;;4934935;29;20251;-79
2023/07/15 01:21:56;;;;;;;8.65;4.35;;;21.10;99.90;;;;;;4935004;29;20222;-80
2023/07/15 01:24:22;;;;;;;6.47;4.53;;;21.00;99.90;;;;;;4935667;29;20207;-79
2023/07/15 01:26:57;;;;;;;6.97;4.22;;;21.00;99.90;;;;;;4936319;29;20215;-78
2023/07/15 01:29:24;;;;;;;11.57;4.45;;;21.00;99.90;;;;;;4935603;29;20190;-78
2023/07/15 01:31:50;;;;;;;6.63;4.15;;;21.00;99.90;;;;;;4934681;29;20227;-79
2023/07/15 01:34:16;;;;;;;9.25;4.55;;;20.90;99.90;;;;;;4936023;29;20191;-79
2023/07/15 01:36:42;;;;;;;8.63;4.75;;;20.90;99.90;;;;;;4938741;29;20282;-83
2023/07/15 01:39:09;;;;;;;10.65;4.80;;;20.80;99.90;;;;;;4938099;29;20231;-80
2023/07/15 01:41:35;;;;;;;7.40;4.47;;;20.80;99.90;;;;;;4938612;29;20202;-78
2023/07/15 01:44:04;;;;;;;11.90;4.90;;;20.80;99.90;;;;;;4939561;29;20223;-78
2023/07/15 01:46:30;;;;;;;10.93;4.38;;;20.80;99.90;;;;;;4937993;29;20196;-79
2023/07/15 01:48:59;;;;;;;8.73;4.65;;;20.80;99.90;;;;;;4938169;29;20344;-79
2023/07/15 01:51:25;;;;;;;11.25;4.65;;;20.70;99.90;;;;;;4923511;29;20335;-83
2023/07/15 01:53:51;;;;;;;7.25;4.50;;;20.70;99.90;;;;;;4938859;29;20602;-83
2023/07/15 01:56:18;;;;;;;10.20;4.78;;;20.70;99.90;;;;;;4938067;29;20278;-79
2023/07/15 01:58:44;;;;;;;10.88;5.05;;;20.70;99.90;;;;;;4922491;29;20231;-80
2023/07/15 02:01:10;;;;;;;7.88;4.85;;;20.70;99.90;;;;;;4937920;29;20599;-79
2023/07/15 02:03:36;;;;;;;13.27;4.93;;;20.70;99.90;;;;;;4938517;29;20231;-79
2023/07/15 02:06:02;;;;;;;9.63;4.32;;;20.70;99.90;;;;;;4922385;29;20255;-78
2023/07/15 02:08:28;;;;;;;7.25;4.20;;;20.70;99.90;;;;;;4938638;29;20191;-78
2023/07/15 02:10:54;;;;;;;11.73;4.40;;;20.70;99.90;;;;;;4938464;29;20620;-80
2023/07/15 02:13:19;;;;;;;9.00;4.40;;;20.70;99.90;;;;;;4937527;29;20187;-79
2023/07/15 02:15:46;;;;;;;9.85;4.32;;;20.60;99.90;;;;;;4939093;29;20183;-78
2023/07/15 02:18:11;;;;;;;9.80;4.45;;;20.70;99.90;;;;;;4937965;29;20179;-79
2023/07/15 02:20:38;;;;;;;7.07;4.25;;;20.70;99.90;;;;;;4937381;29;20187;-79
2023/07/15 02:23:03;;;;;;;9.00;4.25;;;20.70;99.90;;;;;;4938958;29;20179;-80
2023/07/15 02:25:29;;;;;;;8.50;4.00;;;20.70;99.90;;;;;;4937656;29;20527;-82
2023/07/15 02:27:55;;;;;;;8.00;4.18;;;20.70;99.90;;;;;;4937482;29;20697;-78
2023/07/15 02:30:21;;;;;;;8.07;3.85;;;20.70;99.90;;;;;;4922323;29;20694;-79
2023/07/15 02:32:47;;;;;;;8.88;3.80;;;20.70;99.90;;;;;;4937125;29;20235;-78
2023/07/15 02:35:13;;;;;;;8.55;3.83;;;20.70;99.90;;;;;;4937567;29;20210;-79
2023/07/15 02:37:41;;;;;;;5.75;3.85;;;20.70;99.90;;;;;;4938665;29;20186;-78
2023/07/15 02:40:11;;;;;;;8.43;3.65;;;20.70;99.90;;;;;;4937413;28;20194;-77
2023/07/15 02:42:38;;;;;;;8.10;3.65;;;20.70;99.90;;;;;;4937459;29;20186;-77
2023/07/15 02:45:06;;;;;;;5.95;3.60;;;20.70;99.90;;;;;;4938756;29;20301;-80
2023/07/15 02:47:33;;;;;;;6.32;3.47;;;20.70;99.90;;;;;;4921843;29;20218;-79
2023/07/15 02:50:05;;;;;;;11.10;3.60;;;20.80;99.90;;;;;;4936879;29;20604;-79
2023/07/15 02:52:35;;;;;;;13.48;3.42;;;20.80;99.90;;;;;;4938459;29;20172;-79
2023/07/15 02:55:05;;;;;;;10.23;3.53;;;20.80;99.90;;;;;;4922031;29;20194;-79
2023/07/15 02:57:32;;;;;;;7.50;3.30;;;20.90;99.90;;;;;;4937544;29;20180;-79
2023/07/15 02:59:58;;;;;;;4.85;2.95;;;20.90;99.90;;;;;;4921228;29;20625;-79
2023/07/15 03:02:24;;;;;;;5.97;2.92;;;20.90;99.90;;;;;;4938190;29;20274;-79
2023/07/15 03:04:51;;;;;;;4.72;2.90;;;20.90;99.90;;;;;;4937104;29;20217;-79
2023/07/15 03:07:18;;;;;;;11.05;3.65;;;21.00;99.90;;;;;;4936819;28;20191;-79
2023/07/15 03:09:47;;;;;;;5.97;3.00;;;21.00;99.90;;;;;;4921159;29;20180;-79
2023/07/15 03:12:13;;;;;;;9.15;3.15;;;21.10;99.90;;;;;;4938117;29;20231;-80
2023/07/15 03:14:39;;;;;;;5.25;2.90;;;21.10;99.90;;;;;;4936861;29;20554;-82
2023/07/15 03:17:05;;;;;;;8.68;3.20;;;21.10;99.90;;;;;;4936649;29;20245;-79
2023/07/15 03:19:31;;;;;;;6.90;3.28;;;21.20;99.90;;;;;;4938258;29;20180;-86
2023/07/15 03:21:58;;;;;;;10.35;3.15;;;21.20;99.90;;;;;;4936803;29;20194;-80
2023/07/15 03:24:26;;;;;;;7.10;2.78;;;21.30;99.90;;;;;;4920934;29;20207;-79
2023/07/15 03:26:53;;;;;;;6.68;3.15;;;21.30;99.90;;;;;;4936661;29;20183;-79
2023/07/15 03:29:20;;;;;;;4.50;2.80;;;21.30;99.90;;;;;;4936306;29;20191;-79
2023/07/15 03:31:46;;;;;;;8.00;2.90;;;21.30;99.90;;;;;;4937583;29;20265;-79
2023/07/15 03:34:12;;;;;;;8.05;2.75;;;21.40;99.90;;;;;;4937447;29;20180;-79
2023/07/15 03:36:38;;;;;;;7.20;3.15;;;21.40;99.90;;;;;;4936879;29;20186;-78
2023/07/15 03:39:04;;;;;;;5.78;3.00;;;21.40;99.90;;;;;;4938206;29;20221;-80
2023/07/15 03:41:29;;;;;;;6.22;3.17;;;21.40;99.90;;;;;;4936548;28;20207;-81
2023/07/15 03:43:55;;;;;;;11.32;2.97;;;21.40;99.90;;;;;;4936215;29;20212;-80
2023/07/15 03:46:22;;;;;;;5.35;3.10;;;21.40;99.90;;;;;;4937225;29;20197;-80
2023/07/15 03:48:48;;;;;;;6.72;2.75;;;21.40;99.90;;;;;;4920070;29;20176;-81
2023/07/15 03:51:13;;;;;;;5.40;3.05;;;21.40;99.90;;;;;;4936090;29;20239;-80
2023/07/15 03:53:39;;;;;;;6.32;2.88;;;21.40;99.90;;;;;;4936187;29;20186;-80
2023/07/15 03:56:05;;;;;;;5.63;3.08;;;21.40;99.90;;;;;;4936919;29;20190;-80
2023/07/15 03:58:31;;;;;;;10.43;3.25;;;21.40;99.90;;;;;;4936403;29;20176;-79
2023/07/15 04:00:57;;;;;;;5.43;2.70;;;21.40;99.90;;;;;;4937403;29;20696;-80
2023/07/15 04:03:22;;;;;;;7.55;3.00;;;21.40;99.90;;;;;;4936018;29;20545;-80
2023/07/15 04:05:48;;;;;;;10.20;3.00;;;21.40;99.90;;;;;;4936917;29;20191;-79
2023/07/15 04:08:14;;;;;;;8.25;3.00;;;21.40;99.90;;;;;;4935647;29;20187;-80
2023/07/15 04:10:39;;;;;;;6.53;3.17;;;21.40;99.90;;;;;;4935550;29;20195;-80
2023/07/15 04:13:05;;;;;;;5.95;2.90;;;21.40;99.90;;;;;;4935866;29;20179;-79
2023/07/15 04:15:31;;;;;;;7.13;3.00;;;21.40;99.90;;;;;;4921002;29;20284;-79
2023/07/15 04:17:57;;;;;;;10.48;3.47;;;21.40;99.90;;;;;;4939040;29;20183;-89
2023/07/15 04:20:23;;;;;;;5.55;2.85;;;21.30;99.90;;;;;;4936197;28;20599;-80
2023/07/15 04:22:49;;;;;;;7.18;2.90;;;21.30;99.90;;;;;;4935267;29;20290;-80
2023/07/15 04:25:15;;;;;;;5.13;3.05;;;21.30;99.90;;;;;;4935505;29;20225;-80
2023/07/15 04:27:41;;;;;;;6.57;3.00;;;21.30;99.90;;;;;;4935564;29;20191;-79
2023/07/15 04:30:09;;;;;;;10.57;3.65;;;21.30;99.90;;;;;;4937246;29;20172;-79
2023/07/15 04:32:36;;;;;;;7.13;3.10;;;21.30;99.90;;;;;;4935602;29;20235;-80
2023/07/15 04:35:02;;;;;;;4.22;2.70;;;21.30;99.90;;;;;;4919377;29;20186;-79
2023/07/15 04:37:29;;;;;;;6.30;2.88;;;21.30;99.90;;;;;;4935716;29;20202;-80
2023/07/15 04:39:55;;;;;;;6.57;3.25;;;21.30;99.90;;;;;;4936374;29;20179;-81
2023/07/15 04:42:21;;;;;;;7.13;3.20;;;21.30;99.90;;;;;;4936664;29;20183;-79
2023/07/15 04:44:47;;;;;;;9.07;3.25;;;21.30;99.90;;;;;;4936401;29;20206;-80
2023/07/15 04:47:13;;;;;;;10.65;3.75;;;21.30;99.90;;;;;;4935241;29;20183;-79
2023/07/15 04:49:39;;;;;;;6.00;2.80;;;21.30;99.90;;;;;;4936417;29;20632;-80
2023/07/15 04:52:05;;;;;;;9.43;3.05;;;21.30;99.90;;;;;;4935012;29;20219;-80
2023/07/15 04:54:31;;;;;;;6.90;3.13;;;21.30;99.90;;;;;;4935440;29;20258;-79
2023/07/15 04:56:57;;;;;;;8.55;2.92;;;21.30;99.90;;;;;;4937030;29;20179;-79
2023/07/15 04:59:23;;;;;;;5.72;2.95;;;21.30;99.90;;;;;;4935291;29;20190;-78
2023/07/15 05:01:49;;;;;;;5.53;3.22;;;21.30;99.90;;;;;;4919528;29;20190;-79
2023/07/15 05:04:15;;;;;;;8.93;3.10;;;21.40;99.90;;;;;;4939780;29;20262;-84
2023/07/15 05:06:41;;;;;;;6.65;3.38;;;21.40;99.90;;;;;;4919449;29;20234;-79
2023/07/15 05:09:07;;;;;;;10.75;3.20;;;21.40;99.90;;;;;;4935613;29;20179;-80
2023/07/15 05:11:33;;;;;;;6.63;2.78;;;21.40;99.90;;;;;;4919184;29;20176;-80
2023/07/15 05:13:59;;;;;;;8.02;3.05;;;21.40;99.90;;;;;;4920155;29;20187;-79
2023/07/15 05:16:26;;;;;;;13.52;3.30;;;21.50;99.90;;;;;;4919545;29;20573;-82
2023/07/15 05:18:52;;;;;;;5.70;3.00;;;21.50;99.90;;;;;;4906298;29;20184;-80
2023/07/15 05:21:17;;;;;;;10.25;3.45;;;21.50;99.90;;;;;;4935749;29;20195;-80
2023/07/15 05:23:43;;;;;;;9.82;3.70;;;21.50;99.90;;;;;;4934294;29;20290;-79
2023/07/15 05:26:09;;;;;;;6.45;3.38;;;21.50;99.90;;;;;;4918826;29;20191;-86
2023/07/15 05:28:35;;;;;;;9.05;3.40;;;21.50;99.90;;;;;;4934973;29;20179;-79
2023/07/15 05:31:02;;;;;;;6.50;3.03;;;21.50;99.90;;;;;;4937887;29;20167;-80
2023/07/15 05:33:30;;;;;;;9.15;3.47;;;21.50;99.90;;;;;;4935394;29;20223;-80
2023/07/15 05:35:57;;;;;;;4.60;3.13;;;21.60;99.90;;;;;;4935584;29;20180;-80
2023/07/15 05:38:24;;;;;;;8.75;3.58;;;21.60;99.90;;;;;;4939000;29;20203;-86
2023/07/15 05:40:51;;;;;;;6.40;3.35;;;21.60;99.90;;;;;;4939462;29;20175;-81
2023/07/15 05:43:18;;;;;;;5.05;3.15;;;21.60;99.90;;;;;;4935449;29;20647;-81
2023/07/15 05:45:44;;;;;;;4.55;3.55;;;21.60;99.90;;;;;;4935987;29;20684;-80
2023/07/15 05:48:10;;;;;;;7.93;3.28;;;21.60;99.90;;;;;;4935004;29;20505;-80
2023/07/15 05:50:36;;;;;;;5.60;3.13;;;21.70;99.90;;;;;;4934615;28;20258;-80
2023/07/15 05:53:06;;;;;;;12.38;3.40;;;21.70;99.90;;;;;;4934347;28;20195;-81
2023/07/15 05:55:35;;;;;;;6.45;3.13;;;21.70;99.90;;;;;;4934249;29;20649;-82
2023/07/15 05:58:01;;;;;;;4.43;3.15;;;21.80;99.90;;;;;;4935575;29;20175;-80
2023/07/15 06:00:28;;;;;;;5.78;3.22;;;21.80;99.90;;;;;;4934510;28;20194;-81
2023/07/15 06:02:54;;;;;;;7.88;2.95;;;21.80;99.90;;;;;;4935268;29;20183;-76
2023/07/15 06:05:20;;;;;;;7.90;3.20;;;21.90;99.90;;;;;;4918445;29;20229;-81
2023/07/15 06:07:48;;;;;;;6.70;3.08;;;21.90;99.90;;;;;;4902660;29;20191;-84
2023/07/15 06:10:14;;;;;;;6.05;3.05;;;21.90;99.90;;;;;;4934555;29;20248;-83
2023/07/15 06:12:40;;;;;;;5.97;3.22;;;22.00;99.90;;;;;;4934502;28;20194;-81
2023/07/15 06:15:07;;;;;;;5.63;3.20;;;22.00;99.90;;;;;;4919261;29;20188;-80
2023/07/15 06:17:32;;;;;;;8.93;3.60;;;22.00;99.90;;;;;;4919801;29;20274;-82
2023/07/15 06:19:58;;;;;;;9.07;3.13;;;22.10;99.90;;;;;;4918688;29;20296;-80
2023/07/15 06:22:24;;;;;;;9.00;3.28;;;22.10;99.90;;;;;;4936144;29;20183;-82
2023/07/15 06:24:50;;;;;;;8.07;3.25;;;22.10;99.90;;;;;;4923217;29;20214;-80
2023/07/15 06:27:15;;;;;;;7.70;3.03;;;22.20;99.90;;;;;;4937902;29;20650;-81
2023/07/15 06:29:42;;;;;;;4.55;3.08;;;22.20;99.90;;;;;;4922082;29;20177;-79
2023/07/15 06:32:08;;;;;;;4.78;2.85;;;22.30;99.90;;;;;;4905976;29;20231;-79
2023/07/15 06:34:34;;;;;;;8.55;3.40;;;22.40;99.90;;;;;;4938440;29;20184;-78
2023/07/15 06:37:00;;;;;;;3.92;2.85;;;22.40;99.90;;;;;;4938373;29;20243;-81
2023/07/15 06:39:26;;;;;;;7.63;3.25;;;22.40;99.90;;;;;;4921622;29;20263;-82
2023/07/15 06:41:51;;;;;;;6.50;3.20;;;22.50;99.90;;;;;;4922345;29;20592;-79
2023/07/15 06:44:17;;;;;;;7.53;3.17;;;22.50;99.90;;;;;;4921633;29;20234;-79
2023/07/15 06:46:43;;;;;;;5.88;3.30;;;22.60;99.90;;;;;;4921958;29;20215;-79
2023/07/15 06:49:09;;;;;;;4.90;2.97;;;22.60;99.90;;;;;;4938060;29;20278;-78
2023/07/15 06:51:34;;;;;;;7.28;3.30;;;22.70;99.90;;;;;;4937354;29;20176;-78
2023/07/15 06:54:01;;;;;;;9.52;2.92;;;22.70;99.90;;;;;;4937060;29;20198;-81
2023/07/15 06:56:28;;;;;;;7.78;3.00;;;22.80;99.90;;;;;;4937161;29;20273;-79
2023/07/15 06:58:54;;;;;;;6.85;3.10;;;22.80;99.90;;;;;;4937316;29;20207;-80
2023/07/15 07:01:19;;;;;;;8.07;2.83;;;22.90;99.90;;;;;;4938188;29;20596;-82
2023/07/15 07:03:45;;;;;;;8.38;2.83;;;22.90;99.90;;;;;;4938064;29;20219;-81
2023/07/15 07:06:11;;;;;;;7.70;3.15;;;22.90;99.90;;;;;;4937918;29;20215;-80
2023/07/15 07:08:37;;;;;;;7.22;3.00;;;23.00;99.90;;;;;;4938369;29;20183;-80
2023/07/15 07:11:03;;;;;;;8.23;3.13;;;23.00;99.90;;;;;;4936833;29;20186;-81
2023/07/15 07:13:29;;;;;;;6.15;3.00;;;23.10;99.90;;;;;;4938120;29;20552;-81
2023/07/15 07:15:59;;;;;;;5.47;2.72;;;23.10;99.90;;;;;;4936889;29;20226;-82
2023/07/15 07:18:25;;;;;;;8.13;2.90;;;23.10;99.90;;;;;;4921649;29;20183;-82
2023/07/15 07:21:01;;;;;;;7.68;3.28;;;23.10;99.90;;;;;;4938457;29;20599;-82
2023/07/15 07:23:27;;;;;;;4.22;3.15;;;23.10;99.90;;;;;;4937522;29;20191;-85
2023/07/15 07:25:53;;;;;;;5.63;2.85;;;23.10;99.90;;;;;;4940325;29;20183;-80
2023/07/15 07:28:23;;;;;;;6.35;3.00;;;23.10;99.90;;;;;;4909900;29;20732;-77
2023/07/15 07:30:50;;;;;;;4.22;2.90;;;23.20;99.90;;;;;;4940089;29;20666;-81
2023/07/15 07:33:16;;;;;;;5.15;2.28;;;23.20;99.90;;;;;;4922703;29;20367;-81
2023/07/15 07:35:46;;;;;;;4.50;2.35;;;23.30;99.90;;;;;;4938662;29;20654;-82
2023/07/15 07:38:12;;;;;;;6.00;2.60;;;23.40;99.90;;;;;;4922480;29;20179;-81
2023/07/15 07:40:39;;;;;;;4.60;2.28;;;23.40;99.90;;;;;;4907115;29;20194;-81
2023/07/15 07:43:05;;;;;;;3.28;2.22;;;23.50;99.90;;;;;;4923046;29;20243;-80
2023/07/15 07:45:30;;;;;;;9.20;2.55;;;23.50;99.90;;;;;;4923405;29;20215;-82
2023/07/15 07:47:56;;;;;;;10.68;2.53;;;23.60;99.90;;;;;;4924054;29;20270;-81
2023/07/15 07:50:22;;;;;;;5.18;2.40;;;23.60;99.90;;;;;;4941061;29;20628;-81
2023/07/15 07:52:48;;;;;;;8.07;2.60;;;23.70;99.90;;;;;;4941484;29;20183;-81
2023/07/15 07:55:14;;;;;;;4.75;2.30;;;23.80;99.90;;;;;;4924915;29;20179;-83
2023/07/15 07:57:39;;;;;;;7.57;2.25;;;23.80;99.90;;;;;;4907094;29;20180;-85
2023/07/15 08:00:06;;;;;;;4.90;2.40;;;23.90;99.90;;;;;;4921819;29;20188;-81
2023/07/15 08:02:32;;;;;;;7.22;2.33;;;23.90;99.90;;;;;;4907410;29;20241;-82
2023/07/15 08:04:57;;;;;;;4.18;2.60;;;24.00;99.90;;;;;;4940357;29;20207;-81
2023/07/15 08:07:24;;;;;;;7.18;2.53;;;24.00;99.90;;;;;;4908095;29;20190;-81
2023/07/15 08:09:49;;;;;;;6.82;2.78;;;24.00;99.90;;;;;;4907659;29;20179;-80
2023/07/15 08:12:17;;;;;;;4.70;2.78;;;24.00;99.90;;;;;;4938873;29;20259;-83
2023/07/15 08:14:42;;;;;;;6.47;2.40;;;24.00;99.90;;;;;;4908237;29;20195;-79
2023/07/15 08:17:08;;;;;;;7.32;2.75;;;24.00;99.90;;;;;;4940144;29;20565;-82
2023/07/15 08:19:34;;;;;;;5.07;3.00;;;24.10;99.90;;;;;;4939167;29;20631;-81
2023/07/15 08:22:00;;;;;;;7.28;2.72;;;24.20;99.90;;;;;;4909704;29;20191;-81
2023/07/15 08:24:26;;;;;;;7.22;2.70;;;24.10;99.90;;;;;;4924128;29;20222;-80
2023/07/15 08:26:51;;;;;;;4.22;2.67;;;24.20;99.90;;;;;;4904611;29;20640;-79
2023/07/15 08:29:17;;;;;;;8.07;3.10;;;24.20;99.90;;;;;;4936683;29;20646;-85
2023/07/15 08:31:43;;;;;;;8.68;3.05;;;24.30;99.90;;;;;;4919691;29;20306;-80
2023/07/15 08:34:09;;;;;;;5.18;2.97;;;24.30;99.90;;;;;;4904409;29;20176;-80
2023/07/15 08:36:36;;;;;;;8.18;2.42;;;24.40;99.90;;;;;;4919852;29;20714;-80
2023/07/15 08:39:02;;;;;;;4.72;1.90;;;24.50;99.90;;;;;;4936600;29;20192;-80
2023/07/15 08:41:28;;;;;;;5.90;2.00;;;24.50;99.90;;;;;;4935438;29;20270;-79
2023/07/15 08:43:53;;;;;;;2.97;1.70;;;24.60;99.90;;;;;;4919717;29;20617;-80
2023/07/15 08:46:27;;;;;;;5.43;1.85;;;24.70;99.90;;;;;;4919331;29;20296;-81
2023/07/15 08:48:57;;;;;;;1.98;1.55;;;24.80;99.90;;;;;;4935187;29;20270;-80
2023/07/15 08:51:33;;;;;;;3.78;1.65;;;24.80;99.90;;;;;;4936064;29;20190;-82
2023/07/15 08:54:01;;;;;;;3.90;1.70;;;24.90;99.90;;;;;;4935272;28;20190;-83
2023/07/15 08:56:29;;;;;;;16.00;2.00;;;24.90;99.90;;;;;;4935378;29;20184;-77
2023/07/15 08:58:55;;;;;;;4.95;2.00;;;25.00;99.90;;;;;;4934833;29;20184;-77
2023/07/15 09:01:22;;;;;;;6.57;1.85;;;25.00;99.90;;;;;;4936472;29;20179;-79
2023/07/15 09:03:47;;;;;;;2.50;1.50;;;25.00;99.90;;;;;;4919513;29;20274;-79
2023/07/15 09:06:16;;;;;;;3.30;1.77;;;25.10;99.90;;;;;;4935142;29;20187;-78
2023/07/15 09:08:42;;;;;;;6.75;1.75;;;25.20;99.90;;;;;;4903919;29;20258;-77
2023/07/15 09:11:11;;;;;;;4.07;1.70;;;25.30;99.90;;;;;;4935865;29;20628;-77
2023/07/15 09:13:37;;;;;;;3.40;1.63;;;25.40;99.90;;;;;;4936370;29;20187;-77
2023/07/15 09:16:03;;;;;;;6.63;1.65;;;25.50;99.90;;;;;;4936343;29;20583;-78
2023/07/15 09:18:29;;;;;;;3.72;1.50;;;25.60;99.90;;;;;;4936206;28;20628;-78
2023/07/15 09:21:16;;;;;;;2.80;1.77;;;25.60;99.90;;;;;;4934876;29;20180;-78
2023/07/15 09:23:44;;;;;;;4.05;1.65;;;25.60;99.90;;;;;;4936400;29;20214;-78
2023/07/15 09:26:12;;;;;;;3.40;1.80;;;25.60;99.90;;;;;;4936881;29;20247;-78
2023/07/15 09:28:40;;;;;;;3.13;1.80;;;25.60;99.90;;;;;;4934896;29;20194;-77
2023/07/15 09:31:06;;;;;;;2.92;1.90;;;25.60;99.90;;;;;;4934957;29;20545;-77
2023/07/15 09:33:42;;;;;;;3.83;2.17;;;25.60;99.90;;;;;;4936010;29;20235;-79
2023/07/15 09:36:11;;;;;;;7.20;2.10;;;25.50;99.90;;;;;;4936539;29;20163;-79
2023/07/15 09:38:38;;;;;;;3.13;1.83;;;25.50;99.90;;;;;;4936360;29;20658;-78
2023/07/15 09:41:08;;;;;;;3.25;1.88;;;25.50;99.90;;;;;;4919105;29;20183;-78
2023/07/15 09:43:52;;;;;;;4.32;2.13;;;25.50;99.90;;;;;;4934889;29;20179;-77
2023/07/15 09:46:21;;;;;;;4.70;2.08;;;25.50;99.90;;;;;;4936491;29;20327;-80
2023/07/15 09:48:48;;;;;;;4.00;2.47;;;25.50;99.90;;;;;;4936730;29;20266;-79
2023/07/15 09:51:18;;;;;;;2.75;1.90;;;25.50;99.90;;;;;;4918980;29;20188;-81
2023/07/15 09:53:52;;;;;;;3.22;1.77;;;25.50;99.90;;;;;;4919315;29;20195;-82
2023/07/15 09:56:24;;;;;;;4.35;1.95;;;25.60;99.90;;;;;;4934972;29;20193;-79
2023/07/15 09:58:52;;;;;;;2.70;1.80;;;25.60;99.90;;;;;;4938808;29;20267;-78
2023/07/15 10:01:24;;;;;;;3.83;1.98;;;25.70;99.90;;;;;;4938490;29;20201;-77
2023/07/15 10:03:55;;;;;;;5.75;2.00;;;25.80;99.90;;;;;;4939348;29;20207;-79
2023/07/15 10:06:21;;;;;;;4.65;1.90;;;25.80;99.90;;;;;;4938617;29;20181;-77
2023/07/15 10:08:48;;;;;;;5.18;2.67;;;25.80;99.90;;;;;;4940031;29;20187;-78
2023/07/15 10:11:15;;;;;;;8.20;2.40;;;25.90;99.90;;;;;;4938632;29;20180;-80
2023/07/15 10:13:41;;;;;;;5.65;2.47;;;25.90;99.90;;;;;;4938522;29;20187;-79
2023/07/15 10:16:07;;;;;;;4.05;2.45;;;26.00;99.90;;;;;;4938187;29;20250;-78
2023/07/15 10:18:33;;;;;;;3.60;2.17;;;26.10;99.90;;;;;;4939981;29;20175;-78
2023/07/15 10:21:04;;;;;;;4.50;2.30;;;26.00;99.90;;;;;;4939844;29;20209;-81
2023/07/15 10:23:32;;;;;;;3.70;2.22;;;26.10;99.90;;;;;;4937609;29;20183;-78
2023/07/15 10:26:02;;;;;;;7.95;2.33;;;26.20;99.90;;;;;;4938157;29;20191;-79
2023/07/15 10:28:34;;;;;;;5.60;2.58;;;26.30;99.90;;;;;;4939126;29;20179;-78
2023/07/15 10:31:23;;;;;;;4.38;2.78;;;26.30;99.90;;;;;;4937979;29;20175;-78
2023/07/15 10:34:03;;;;;;;5.90;2.50;;;26.30;99.90;;;;;;4937765;29;20654;-79
2023/07/15 10:36:35;;;;;;;7.00;2.45;;;26.30;99.90;;;;;;4939608;29;20187;-79
2023/07/15 10:39:14;;;;;;;2.95;2.13;;;26.30;99.90;;;;;;4922568;29;20243;-78
2023/07/15 10:41:42;;;;;;;5.22;2.40;;;26.30;99.90;;;;;;4939372;29;20240;-80
2023/07/15 10:44:19;;;;;;;5.72;2.33;;;26.30;99.90;;;;;;4937862;29;20239;-79
2023/07/15 10:46:51;;;;;;;5.45;2.50;;;26.40;99.90;;;;;;4937791;29;20176;-78
2023/07/15 10:49:18;;;;;;;6.57;2.50;;;26.40;99.90;;;;;;4938031;29;20221;-77
2023/07/15 10:51:44;;;;;;;4.35;2.67;;;26.50;99.90;;;;;;4922374;29;20187;-80
2023/07/15 10:54:10;;;;;;;4.70;2.80;;;26.50;99.90;;;;;;4938169;29;20666;-77
2023/07/15 10:56:36;;;;;;;5.78;2.75;;;26.50;99.90;;;;;;4937345;29;20187;-78
2023/07/15 10:59:02;;;;;;;3.38;2.30;;;26.50;99.90;;;;;;4921565;29;20652;-78
2023/07/15 11:01:28;;;;;;;3.50;2.45;;;26.40;99.70;;;;;;4938452;29;20268;-78
2023/07/15 11:03:53;;;;;;;4.05;2.33;;;26.40;99.80;;;;;;4937151;29;20703;-79
2023/07/15 11:06:24;;;;;;;2.95;2.25;;;26.40;99.80;;;;;;4921558;29;20337;-79
2023/07/15 11:08:50;;;;;;;4.03;2.20;;;26.40;99.70;;;;;;4923405;29;20191;-80
2023/07/15 11:11:16;;;;;;;4.38;2.38;;;26.50;99.60;;;;;;4907788;29;20198;-78
2023/07/15 11:13:42;;;;;;;6.30;2.20;;;26.50;99.70;;;;;;4923172;29;20186;-79
2023/07/15 11:16:08;;;;;;;3.35;2.30;;;26.50;99.60;;;;;;4922304;29;20269;-78
2023/07/15 11:18:34;;;;;;;3.45;2.20;;;26.50;99.60;;;;;;4923117;29;20188;-81
2023/07/15 11:21:00;;;;;;;5.72;2.45;;;26.60;99.70;;;;;;4938751;29;20270;-78
2023/07/15 11:23:30;;;;;;;3.83;2.20;;;26.60;99.70;;;;;;4938580;29;20190;-79
2023/07/15 11:25:57;;;;;;;5.35;2.40;;;26.60;99.70;;;;;;4938549;29;20187;-83
2023/07/15 11:28:23;;;;;;;5.00;2.50;;;26.70;99.60;;;;;;4938009;28;20226;-78
2023/07/15 11:30:49;;;;;;;4.18;2.38;;;26.70;99.50;;;;;;4937042;29;20207;-78
2023/07/15 11:33:16;;;;;;;4.82;2.20;;;26.70;99.40;;;;;;4921638;29;20298;-80
2023/07/15 11:35:45;;;;;;;3.50;2.20;;;26.80;99.30;;;;;;4936587;29;20181;-78
2023/07/15 11:38:11;;;;;;;6.43;2.45;;;26.80;99.20;;;;;;4936750;28;20187;-77
2023/07/15 11:40:58;;;;;;;3.92;2.22;;;26.80;99.00;;;;;;4920964;29;20183;-79
2023/07/15 11:43:26;;;;;;;4.35;2.20;;;26.80;98.90;;;;;;4938000;29;20175;-79
2023/07/15 11:45:57;;;;;;;3.75;2.10;;;26.80;99.00;;;;;;4937196;29;20187;-82
2023/07/15 11:48:36;;;;;;;4.47;1.92;;;26.80;99.00;;;;;;4937086;29;20183;-82
2023/07/15 11:51:06;;;;;;;3.85;1.90;;;26.80;98.80;;;;;;4937866;29;20182;-80
2023/07/15 11:53:33;;;;;;;8.00;2.38;;;26.70;98.80;;;;;;4937509;29;20283;-81
2023/07/15 11:56:00;;;;;;;4.65;1.88;;;26.70;98.40;;;;;;4920885;29;20686;-85
2023/07/15 11:58:44;;;;;;;4.00;1.80;;;26.70;98.40;;;;;;4920899;29;20233;-80
2023/07/15 12:01:18;;;;;;;4.65;2.00;;;26.70;98.60;;;;;;4921199;29;20182;-81
2023/07/15 12:03:45;;;;;;;6.32;2.05;;;26.70;98.60;;;;;;4936360;29;20179;-79
2023/07/15 12:06:19;;;;;;;2.47;1.80;;;26.70;98.40;;;;;;4936340;29;20197;-80
2023/07/15 12:09:07;;;;;;;4.07;2.00;;;26.80;98.30;;;;;;4936536;29;20202;-80
2023/07/15 12:11:33;;;;;;;6.35;1.80;;;26.80;98.20;;;;;;4937817;29;20171;-80
2023/07/15 12:14:01;;;;;;;4.18;1.88;;;26.80;97.90;;;;;;4920283;29;20195;-80
2023/07/15 12:16:28;;;;;;;5.38;1.77;;;26.80;97.70;;;;;;4920031;29;20202;-80
2023/07/15 12:18:55;;;;;;;3.85;1.65;;;26.80;97.80;;;;;;4937374;29;20175;-79
2023/07/15 12:21:21;;;;;;;3.28;1.83;;;26.90;97.90;;;;;;4936924;29;20212;-81
2023/07/15 12:23:47;;;;;;;5.78;1.98;;;26.90;97.90;;;;;;4935800;29;20671;-79
2023/07/15 12:26:13;;;;;;;5.82;2.00;;;26.90;97.80;;;;;;4935921;29;20179;-81
2023/07/15 12:28:38;;;;;;;4.63;2.00;;;26.90;97.70;;;;;;4935846;29;20274;-82
2023/07/15 12:31:04;;;;;;;2.97;2.05;;;27.00;97.70;;;;;;4937441;29;20178;-79
2023/07/15 12:33:30;;;;;;;10.90;2.08;;;27.00;97.70;;;;;;4903222;29;20651;-77
2023/07/15 12:35:56;;;;;;;5.22;1.83;;;27.00;97.70;;;;;;4919374;29;20232;-78
2023/07/15 12:38:22;;;;;;;5.22;2.03;;;27.00;97.70;;;;;;4935971;29;20620;-79
2023/07/15 12:40:48;;;;;;;4.03;2.00;;;27.10;97.60;;;;;;4936081;29;20659;-79
2023/07/15 12:43:14;;;;;;;4.28;1.95;;;27.10;97.50;;;;;;4904271;29;20582;-78
2023/07/15 12:45:41;;;;;;;5.78;1.90;;;27.10;97.40;;;;;;4936427;29;20553;-82